createdAt,value
2019-05-02T00:00:58.930Z,60.10
2019-05-02T00:03:29.466Z,60.20
2019-05-02T00:06:03.008Z,60.40
2019-05-02T00:08:33.224Z,60.50
2019-05-02T00:11:02.920Z,60.50
2019-05-02T00:13:32.842Z,60.60
2019-05-02T00:16:02.819Z,60.70
2019-05-02T00:18:37.184Z,60.70
2019-05-02T00:21:04.866Z,60.70
2019-05-02T00:23:34.933Z,60.70
2019-05-02T00:26:04.824Z,60.90
2019-05-02T00:28:34.875Z,61.00
2019-05-02T00:31:07.459Z,61.10
2019-05-02T00:33:36.404Z,61.20
2019-05-02T00:36:06.268Z,61.30
2019-05-02T00:38:38.352Z,61.30
2019-05-02T00:41:07.196Z,61.40
2019-05-02T00:43:36.923Z,61.50
2019-05-02T00:46:06.666Z,61.40
2019-05-02T00:48:37.901Z,61.40
2019-05-02T00:51:07.575Z,61.50
2019-05-02T00:53:37.189Z,61.60
2019-05-02T00:56:09.070Z,61.80
2019-05-02T00:58:38.151Z,62.00
2019-05-02T01:01:10.692Z,62.10
2019-05-02T01:03:41.922Z,62.20
2019-05-02T01:06:14.553Z,62.20
2019-05-02T01:08:43.245Z,62.50
2019-05-02T01:11:13.007Z,62.50
2019-05-02T01:13:42.693Z,62.60
2019-05-02T01:16:15.252Z,62.60
2019-05-02T01:18:44.587Z,62.60
2019-05-02T01:21:14.990Z,62.80
2019-05-02T01:23:44.837Z,62.90
2019-05-02T01:26:14.719Z,63.00
2019-05-02T01:28:49.196Z,63.00
2019-05-02T01:31:37.640Z,63.20
2019-05-02T01:34:23.561Z,63.20
2019-05-02T01:36:55.045Z,63.30
2019-05-02T01:39:24.737Z,63.30
2019-05-02T01:41:54.395Z,63.50
2019-05-02T01:44:24.128Z,63.70
2019-05-02T01:46:54.062Z,63.80
2019-05-02T01:49:25.165Z,64.00
2019-05-02T01:51:54.982Z,64.80
2019-05-02T01:54:24.588Z,64.10
2019-05-02T01:56:54.195Z,64.20
2019-05-02T01:59:23.870Z,64.20
2019-05-02T02:01:57.968Z,64.10
2019-05-02T02:04:24.880Z,64.20
2019-05-02T02:06:54.732Z,64.40
2019-05-02T02:09:24.586Z,64.30
2019-05-02T02:11:54.206Z,64.30
2019-05-02T02:14:23.885Z,64.30
2019-05-02T02:16:53.491Z,64.30
2019-05-02T02:19:27.136Z,64.40
2019-05-02T02:22:07.449Z,64.40
2019-05-02T02:24:39.004Z,64.50
2019-05-02T02:27:09.542Z,64.40
2019-05-02T02:29:43.879Z,64.40
2019-05-02T02:32:10.554Z,64.40
2019-05-02T02:34:40.170Z,64.30
2019-05-02T02:37:12.449Z,64.30
2019-05-02T02:39:41.093Z,64.30
2019-05-02T02:42:10.698Z,64.40
2019-05-02T02:44:50.788Z,64.60
2019-05-02T02:47:21.247Z,64.50
2019-05-02T02:49:55.769Z,64.50
2019-05-02T02:52:22.379Z,64.60
2019-05-02T02:54:51.994Z,64.60
2019-05-02T02:57:26.282Z,64.70
2019-05-02T02:59:52.904Z,64.80
2019-05-02T03:02:22.525Z,65.70
2019-05-02T03:04:52.199Z,65.00
2019-05-02T03:07:25.697Z,65.00
2019-05-02T03:09:53.509Z,65.00
2019-05-02T03:12:22.981Z,65.20
2019-05-02T03:14:57.092Z,65.10
2019-05-02T03:17:28.726Z,65.10
2019-05-02T03:20:01.381Z,65.10
2019-05-02T03:22:34.769Z,65.00
2019-05-02T03:25:00.994Z,65.00
2019-05-02T03:27:37.242Z,64.90
2019-05-02T03:30:02.604Z,64.90
2019-05-02T03:41:23.143Z,65.20
2019-05-02T03:44:09.442Z,65.30
2019-05-02T03:46:22.956Z,65.60
2019-05-02T03:49:05.438Z,65.70
2019-05-02T03:51:25.369Z,65.80
2019-05-02T03:54:05.799Z,65.70
2019-05-02T03:56:26.683Z,65.70
2019-05-02T03:58:58.296Z,65.60
2019-05-02T04:01:27.794Z,65.50
2019-05-02T04:03:57.647Z,65.60
2019-05-02T04:06:27.394Z,65.60
2019-05-02T04:09:00.043Z,65.70
2019-05-02T04:11:37.861Z,65.70
2019-05-02T04:14:00.255Z,65.80
2019-05-02T04:16:30.921Z,65.90
2019-05-02T04:19:02.936Z,66.00
2019-05-02T04:21:32.847Z,66.10
2019-05-02T04:24:12.969Z,66.10
2019-05-02T04:26:34.652Z,66.20
2019-05-02T04:29:04.460Z,66.10
2019-05-02T04:31:34.092Z,66.20
2019-05-02T04:34:14.355Z,66.20
2019-05-02T04:36:35.111Z,66.20
2019-05-02T04:39:12.707Z,66.30
2019-05-02T04:41:39.228Z,66.20
2019-05-02T04:44:09.414Z,66.20
2019-05-02T04:46:39.144Z,66.30
2019-05-02T04:49:09.291Z,66.30
2019-05-02T04:51:39.023Z,66.30
2019-05-02T04:54:09.347Z,66.40
2019-05-02T04:56:48.547Z,66.50
2019-05-02T04:59:17.557Z,66.60
2019-05-02T05:01:49.175Z,66.60
2019-05-02T05:04:13.248Z,66.70
2019-05-02T05:06:52.842Z,66.70
2019-05-02T05:09:15.005Z,66.80
2019-05-02T05:11:44.749Z,66.80
2019-05-02T05:14:14.352Z,66.90
2019-05-02T05:16:45.488Z,66.80
2019-05-02T05:19:15.337Z,66.80
2019-05-02T05:21:44.931Z,66.70
2019-05-02T05:24:18.131Z,66.70
2019-05-02T05:26:50.460Z,66.60
2019-05-02T05:29:23.244Z,66.50
2019-05-02T05:31:55.193Z,66.60
2019-05-02T05:34:27.480Z,66.50
2019-05-02T05:36:54.079Z,66.50
2019-05-02T05:39:23.710Z,67.10
2019-05-02T05:41:53.309Z,66.30
2019-05-02T05:44:23.181Z,66.20
2019-05-02T05:46:54.241Z,66.20
2019-05-02T05:49:24.149Z,66.10
2019-05-02T05:51:59.509Z,66.00
2019-05-02T05:54:25.676Z,65.90
2019-05-02T05:56:57.173Z,66.00
2019-05-02T05:59:30.733Z,65.80
2019-05-02T06:01:58.221Z,65.80
2019-05-02T06:04:32.677Z,65.90
2019-05-02T06:07:03.111Z,65.90
2019-05-02T06:09:32.368Z,65.90
2019-05-02T06:12:02.131Z,66.00
2019-05-02T06:14:34.263Z,66.00
2019-05-02T06:17:03.309Z,65.90
2019-05-02T06:19:33.952Z,66.00
2019-05-02T06:22:03.555Z,65.90
2019-05-02T06:24:34.005Z,65.60
2019-05-02T06:27:03.655Z,65.50
2019-05-02T06:29:33.272Z,65.60
2019-05-02T06:32:03.554Z,65.50
2019-05-02T06:34:33.172Z,65.50
2019-05-02T06:37:02.939Z,65.40
2019-05-02T06:39:33.251Z,65.30
2019-05-02T06:42:02.919Z,65.10
2019-05-02T06:44:32.519Z,65.00
2019-05-02T06:47:04.395Z,65.00
2019-05-02T06:49:33.628Z,64.80
2019-05-02T06:52:03.231Z,64.60
2019-05-02T06:54:32.933Z,64.50
2019-05-02T06:57:02.530Z,64.30
2019-05-02T06:59:32.124Z,64.00
2019-05-02T07:02:01.814Z,63.70
2019-05-02T07:04:31.428Z,63.50
2019-05-02T07:07:01.074Z,63.20
2019-05-02T07:09:40.565Z,62.90
2019-05-02T07:12:02.215Z,62.70
2019-05-02T07:14:31.869Z,62.50
2019-05-02T07:17:05.679Z,62.40
2019-05-02T07:19:36.193Z,62.30
2019-05-02T07:22:05.986Z,62.10
2019-05-02T07:24:35.801Z,62.00
2019-05-02T07:27:05.473Z,62.00
2019-05-02T07:29:35.087Z,62.00
2019-05-02T07:32:05.216Z,62.00
2019-05-02T07:34:35.222Z,62.00
2019-05-02T07:37:08.407Z,62.20
2019-05-02T07:39:40.914Z,62.10
2019-05-02T07:42:09.769Z,62.00
2019-05-02T07:44:39.363Z,62.80
2019-05-02T07:47:08.968Z,61.90
2019-05-02T07:49:39.505Z,61.90
2019-05-02T07:52:09.101Z,61.80
2019-05-02T07:54:38.798Z,61.70
2019-05-02T07:57:09.726Z,61.40
2019-05-02T07:59:39.336Z,61.30
2019-05-02T08:02:09.393Z,62.00
2019-05-02T08:04:43.572Z,61.10
2019-05-02T08:07:10.402Z,61.00
2019-05-02T08:09:44.049Z,61.00
2019-05-02T08:12:11.878Z,60.90
2019-05-02T08:14:41.567Z,60.90
2019-05-02T08:17:17.294Z,60.90
2019-05-02T08:19:43.311Z,61.00
2019-05-02T08:22:14.831Z,61.00
2019-05-02T08:24:44.979Z,61.00
2019-05-02T08:27:23.201Z,61.10
2019-05-02T08:29:53.549Z,61.30
2019-05-02T08:32:23.138Z,61.30
2019-05-02T08:34:53.525Z,61.50
2019-05-02T08:37:23.146Z,61.50
2019-05-02T08:39:52.762Z,61.40
2019-05-02T08:42:22.366Z,61.40
2019-05-02T08:44:56.237Z,61.50
2019-05-02T08:47:28.021Z,61.60
2019-05-02T08:49:56.635Z,61.60
2019-05-02T08:52:26.400Z,61.60
2019-05-02T08:54:56.039Z,61.70
2019-05-02T08:57:25.710Z,61.60
2019-05-02T09:00:00.123Z,61.70
2019-05-02T09:02:27.482Z,61.50
2019-05-02T09:04:58.565Z,61.20
2019-05-02T09:07:31.641Z,61.20
2019-05-02T09:10:00.203Z,60.90
2019-05-02T09:12:31.994Z,60.70
2019-05-02T09:15:02.726Z,60.40
2019-05-02T09:17:38.253Z,59.90
2019-05-02T09:20:15.103Z,59.70
2019-05-02T09:22:38.064Z,59.60
2019-05-02T09:25:10.020Z,59.60
2019-05-02T09:27:39.618Z,59.30
2019-05-02T09:30:17.163Z,59.00
2019-05-02T09:32:45.125Z,59.10
2019-05-02T09:35:14.883Z,58.70
2019-05-02T09:37:44.477Z,58.30
2019-05-02T09:40:16.720Z,58.30
2019-05-02T09:42:47.625Z,58.50
2019-05-02T09:45:22.702Z,58.40
2019-05-02T09:48:01.311Z,58.60
2019-05-02T09:50:30.002Z,58.80
2019-05-02T09:52:55.972Z,58.90
2019-05-02T09:55:25.650Z,59.10
2019-05-02T09:57:55.358Z,59.10
2019-05-02T10:00:38.106Z,59.50
2019-05-02T10:03:07.712Z,59.70
2019-05-02T10:05:37.447Z,59.70
2019-05-02T10:08:10.991Z,59.80
2019-05-02T10:10:42.530Z,60.00
2019-05-02T10:13:12.200Z,60.40
2019-05-02T10:15:42.279Z,60.50
2019-05-02T10:18:14.645Z,60.70
2019-05-02T10:20:43.584Z,61.00
2019-05-02T10:23:19.452Z,60.90
2019-05-02T10:25:46.886Z,61.00
2019-05-02T10:28:17.091Z,61.10
2019-05-02T10:30:47.407Z,61.10
2019-05-02T10:33:18.277Z,61.20
2019-05-02T10:35:49.561Z,61.30
2019-05-02T10:38:19.602Z,61.50
2019-05-02T10:40:55.586Z,61.40
2019-05-02T10:43:22.277Z,61.20
2019-05-02T10:45:56.424Z,61.20
2019-05-02T10:48:28.167Z,61.10
2019-05-02T10:51:13.045Z,60.90
2019-05-02T10:53:47.081Z,61.00
2019-05-02T10:56:14.000Z,61.20
2019-05-02T10:58:43.597Z,61.40
2019-05-02T11:01:14.852Z,61.70
2019-05-02T11:03:57.844Z,62.00
2019-05-02T11:06:27.458Z,62.30
2019-05-02T11:08:57.048Z,62.40
2019-05-02T11:11:26.807Z,63.00
2019-05-02T11:14:04.865Z,63.50
2019-05-02T11:16:42.215Z,64.20
2019-05-02T11:19:15.924Z,64.60
2019-05-02T11:21:55.813Z,65.00
2019-05-02T11:24:17.383Z,65.10
2019-05-02T11:26:46.994Z,65.20
2019-05-02T11:29:16.679Z,65.40
2019-05-02T11:31:46.582Z,65.20
2019-05-02T11:34:16.449Z,65.60
2019-05-02T11:36:47.127Z,65.50
2019-05-02T11:39:25.510Z,66.30
2019-05-02T11:41:48.669Z,66.10
2019-05-02T11:44:18.282Z,66.20
2019-05-02T11:46:47.972Z,66.40
2019-05-02T11:49:17.579Z,66.50
2019-05-02T11:51:52.796Z,66.30
2019-05-02T11:54:18.844Z,66.50
2019-05-02T11:56:49.302Z,66.50
2019-05-02T11:59:20.788Z,66.40
2019-05-02T12:02:00.090Z,66.40
2019-05-02T12:04:29.886Z,66.40
2019-05-02T12:07:01.557Z,66.20
2019-05-02T12:09:31.956Z,66.40
2019-05-02T12:12:02.525Z,66.40
2019-05-02T12:14:36.267Z,66.40
2019-05-02T12:17:03.582Z,66.40
2019-05-02T12:19:33.194Z,66.50
2019-05-02T12:22:02.916Z,66.80
2019-05-02T12:24:36.479Z,67.10
2019-05-02T12:27:05.664Z,67.10
2019-05-02T12:29:35.277Z,66.40
2019-05-02T12:32:04.937Z,66.30
2019-05-02T12:34:34.625Z,66.20
2019-05-02T12:37:04.232Z,65.80
2019-05-02T12:39:33.845Z,65.70
2019-05-02T12:42:03.970Z,65.60
2019-05-02T12:44:33.671Z,65.00
2019-05-02T12:47:03.448Z,64.80
2019-05-02T12:49:33.059Z,64.10
2019-05-02T12:52:02.749Z,63.90
2019-05-02T12:54:32.601Z,63.50
2019-05-02T12:57:02.290Z,63.20
2019-05-02T12:59:32.273Z,63.20
2019-05-02T13:02:03.799Z,62.70
2019-05-02T13:04:33.428Z,62.20
2019-05-02T13:07:03.033Z,60.90
2019-05-02T13:09:32.717Z,60.50
2019-05-02T13:12:04.018Z,60.90
2019-05-02T13:14:33.774Z,60.90
2019-05-02T13:17:05.732Z,60.10
2019-05-02T13:19:40.221Z,59.60
2019-05-02T13:22:08.353Z,59.20
2019-05-02T13:24:39.738Z,58.90
2019-05-02T13:27:12.614Z,58.40
2019-05-02T13:29:42.845Z,58.30
2019-05-02T13:32:27.044Z,58.60
2019-05-02T13:35:03.848Z,58.40
2019-05-02T13:37:33.601Z,58.70
2019-05-02T13:40:17.021Z,58.60
2019-05-02T13:42:45.473Z,58.60
2019-05-02T13:45:33.754Z,58.60
2019-05-02T13:48:03.532Z,58.60
2019-05-02T13:50:33.222Z,58.90
2019-05-02T13:53:02.862Z,59.20
2019-05-02T13:55:34.243Z,59.10
2019-05-02T13:58:03.929Z,58.80
2019-05-02T14:00:38.305Z,58.80
2019-05-02T14:03:08.131Z,58.50
2019-05-02T14:05:42.183Z,57.90
2019-05-02T14:08:17.197Z,57.70
2019-05-02T14:10:52.696Z,57.70
2019-05-02T14:13:22.469Z,57.80
2019-05-02T14:15:52.733Z,57.80
2019-05-02T14:18:28.687Z,57.40
2019-05-02T14:20:53.902Z,57.20
2019-05-02T14:23:23.829Z,57.00
2019-05-02T14:25:53.479Z,56.80
2019-05-02T14:28:26.911Z,56.50
2019-05-02T14:30:54.603Z,56.40
2019-05-02T14:33:25.857Z,56.50
2019-05-02T14:35:55.829Z,56.50
2019-05-02T14:38:25.454Z,56.30
2019-05-02T14:40:57.323Z,56.30
2019-05-02T14:43:46.824Z,56.60
2019-05-02T14:46:17.972Z,56.50
2019-05-02T14:48:48.683Z,56.10
2019-05-02T14:51:23.066Z,56.40
2019-05-02T14:53:52.331Z,56.20
2019-05-02T14:56:43.412Z,55.90
2019-05-02T14:59:17.887Z,56.10
2019-05-02T15:01:47.047Z,55.90
2019-05-02T15:04:16.816Z,55.90
2019-05-02T15:06:47.532Z,55.30
2019-05-02T15:09:22.484Z,55.30
2019-05-02T15:12:03.050Z,55.10
2019-05-02T15:14:34.794Z,54.60
2019-05-02T15:17:05.672Z,54.20
2019-05-02T15:19:35.328Z,54.20
2019-05-02T15:22:05.257Z,53.90
2019-05-02T15:24:37.481Z,54.20
2019-05-02T15:27:12.269Z,54.10
2019-05-02T15:29:38.007Z,54.70
2019-05-02T15:32:25.336Z,55.00
2019-05-02T15:35:04.649Z,54.90
2019-05-02T15:37:35.983Z,54.60
2019-05-02T15:42:39.222Z,53.00
2019-05-02T15:45:09.056Z,52.50
2019-05-02T15:47:41.723Z,51.50
2019-05-02T15:50:14.690Z,51.50
2019-05-02T15:52:43.318Z,51.60
2019-05-02T15:55:13.514Z,52.10
2019-05-02T15:57:45.991Z,52.90
2019-05-02T16:00:23.179Z,52.50
2019-05-02T16:02:48.853Z,52.40
2019-05-02T16:05:18.611Z,52.50
2019-05-02T16:07:48.211Z,53.00
2019-05-02T16:10:18.233Z,52.70
2019-05-02T16:12:49.754Z,52.20
2019-05-02T16:15:22.221Z,52.20
2019-05-02T16:17:52.259Z,52.40
2019-05-02T16:20:29.722Z,51.90
2019-05-02T16:22:59.664Z,52.00
2019-05-02T16:25:29.261Z,52.90
2019-05-02T16:28:04.560Z,52.60
2019-05-02T16:30:31.924Z,52.80
2019-05-02T16:33:02.744Z,53.30
2019-05-02T16:35:34.114Z,53.30
2019-05-02T16:38:03.711Z,52.90
2019-05-02T16:40:34.866Z,52.00
2019-05-02T16:43:04.605Z,51.50
2019-05-02T16:45:34.514Z,51.30
2019-05-02T16:48:04.284Z,51.50
2019-05-02T16:50:36.752Z,51.60
2019-05-02T16:53:05.364Z,52.00
2019-05-02T16:55:34.978Z,51.90
2019-05-02T16:58:07.117Z,51.80
2019-05-02T17:00:41.856Z,51.60
2019-05-02T17:03:09.492Z,52.00
2019-05-02T17:05:44.304Z,52.40
2019-05-02T17:08:18.821Z,52.70
2019-05-02T17:10:53.788Z,52.60
2019-05-02T17:13:21.486Z,52.70
2019-05-02T17:15:52.258Z,52.50
2019-05-02T17:18:22.838Z,52.60
2019-05-02T17:20:56.679Z,52.70
2019-05-02T17:23:23.996Z,53.10
2019-05-02T17:25:53.644Z,53.50
2019-05-02T17:28:23.290Z,53.60
2019-05-02T17:30:53.246Z,53.70
2019-05-02T17:33:22.942Z,53.70
2019-05-02T17:35:54.366Z,53.90
2019-05-02T17:38:29.056Z,54.00
2019-05-02T17:40:59.149Z,54.20
2019-05-02T17:43:26.924Z,54.30
2019-05-02T17:45:56.765Z,54.40
2019-05-02T17:48:26.375Z,54.40
2019-05-02T17:51:02.141Z,54.70
2019-05-02T17:53:33.531Z,54.90
2019-05-02T17:56:03.269Z,55.10
2019-05-02T17:58:33.227Z,55.30
2019-05-02T18:01:04.474Z,55.60
2019-05-02T18:03:35.459Z,55.80
2019-05-02T18:06:07.551Z,56.00
2019-05-02T18:08:36.879Z,56.30
2019-05-02T18:11:06.861Z,56.60
2019-05-02T18:13:36.566Z,57.00
2019-05-02T18:16:07.692Z,57.30
2019-05-02T18:18:43.817Z,57.60
2019-05-02T18:21:09.656Z,58.30
2019-05-02T18:23:39.254Z,58.40
2019-05-02T18:26:08.837Z,58.60
2019-05-02T18:28:47.043Z,58.90
2019-05-02T18:31:12.060Z,59.40
2019-05-02T18:33:42.494Z,59.70
2019-05-02T18:36:12.172Z,60.10
2019-05-02T18:38:41.906Z,60.50
2019-05-02T18:41:12.088Z,60.80
2019-05-02T18:43:45.202Z,60.80
2019-05-02T18:46:13.235Z,61.20
2019-05-02T18:48:48.948Z,61.20
2019-05-02T18:51:18.946Z,61.10
2019-05-02T18:53:48.788Z,61.50
2019-05-02T18:56:18.495Z,61.40
2019-05-02T18:58:48.122Z,62.30
2019-05-02T19:01:20.746Z,61.50
2019-05-02T19:03:52.621Z,61.30
2019-05-02T19:06:21.994Z,61.30
2019-05-02T19:08:54.897Z,61.30
2019-05-02T19:11:26.755Z,61.50
2019-05-02T19:13:55.899Z,61.50
2019-05-02T19:16:28.687Z,61.50
2019-05-02T19:18:57.662Z,61.70
2019-05-02T19:21:32.152Z,61.90
2019-05-02T19:24:02.276Z,62.00
2019-05-02T19:26:32.633Z,62.00
2019-05-02T19:29:08.435Z,62.00
2019-05-02T19:31:44.430Z,61.90
2019-05-02T19:34:16.623Z,61.70
2019-05-02T19:36:43.576Z,61.80
2019-05-02T19:39:13.623Z,61.80
2019-05-02T19:41:43.994Z,61.70
2019-05-02T19:44:21.436Z,61.60
2019-05-02T19:46:47.803Z,61.60
2019-05-02T19:49:17.397Z,61.60
2019-05-02T19:51:50.537Z,61.60
2019-05-02T19:54:18.486Z,61.60
2019-05-02T19:56:48.108Z,61.60
2019-05-02T19:59:24.577Z,61.50
2019-05-02T20:01:49.191Z,61.50
2019-05-02T20:04:19.281Z,62.10
2019-05-02T20:06:48.999Z,62.10
2019-05-02T20:09:20.514Z,61.90
2019-05-02T20:11:52.021Z,61.80
2019-05-02T20:14:21.899Z,61.90
2019-05-02T20:16:55.393Z,62.10
2019-05-02T20:19:26.931Z,62.00
2019-05-02T20:22:02.784Z,61.90
2019-05-02T20:24:33.695Z,61.90
2019-05-02T20:27:03.377Z,62.00
2019-05-02T20:29:33.044Z,62.20
2019-05-02T20:32:03.780Z,62.30
2019-05-02T20:34:33.382Z,62.30
2019-05-02T20:37:03.056Z,62.20
2019-05-02T20:39:32.656Z,62.20
2019-05-02T20:42:02.732Z,62.40
2019-05-02T20:44:32.565Z,62.40
2019-05-02T20:47:02.588Z,62.10
2019-05-02T20:49:32.377Z,61.90
2019-05-02T20:52:02.505Z,61.60
2019-05-02T20:54:32.388Z,61.40
2019-05-02T20:57:02.528Z,61.10
2019-05-02T20:59:32.348Z,61.00
2019-05-02T21:02:02.313Z,60.70
2019-05-02T21:04:31.982Z,60.60
2019-05-02T21:07:18.171Z,60.50
2019-05-02T21:09:54.934Z,59.60
2019-05-02T21:12:24.928Z,59.40
2019-05-02T21:14:54.651Z,59.00
2019-05-02T21:17:24.321Z,58.70
2019-05-02T21:19:53.978Z,58.60
2019-05-02T21:22:28.612Z,58.50
2019-05-02T21:24:58.274Z,58.40
2019-05-02T21:27:28.204Z,58.30
2019-05-02T21:29:58.228Z,59.20
2019-05-02T21:32:27.864Z,58.40
2019-05-02T21:34:57.563Z,58.50
2019-05-02T21:37:27.241Z,58.50
2019-05-02T21:39:56.871Z,58.50
2019-05-02T21:42:26.513Z,58.40
2019-05-02T21:44:56.256Z,58.50
2019-05-02T21:47:26.084Z,58.40
2019-05-02T21:50:05.936Z,58.30
2019-05-02T21:52:52.814Z,58.40
2019-05-02T21:55:22.244Z,58.50
2019-05-02T21:57:52.189Z,58.40
2019-05-02T22:00:43.539Z,58.40
2019-05-02T22:03:13.455Z,58.30
2019-05-02T22:05:44.105Z,58.30
2019-05-02T22:08:14.075Z,58.30
2019-05-02T22:10:43.729Z,58.30
2019-05-02T22:13:13.370Z,58.40
2019-05-02T22:15:43.064Z,58.50
2019-05-02T22:18:13.770Z,58.60
2019-05-02T22:20:43.425Z,58.60
2019-05-02T22:23:13.377Z,58.70
2019-05-02T22:25:43.325Z,58.70
2019-05-02T22:28:13.032Z,58.70
2019-05-02T22:30:42.987Z,58.70
2019-05-02T22:33:12.702Z,59.00
2019-05-02T22:35:43.407Z,58.60
2019-05-02T22:38:22.237Z,58.60
2019-05-02T22:40:53.623Z,58.60
2019-05-02T22:43:23.273Z,58.70
2019-05-02T22:45:52.915Z,58.60
2019-05-02T22:48:22.802Z,58.60
2019-05-02T22:50:52.502Z,58.50
2019-05-02T22:53:22.220Z,58.60
2019-05-02T22:55:51.907Z,58.60
2019-05-02T22:58:22.241Z,58.70
2019-05-02T23:00:52.337Z,58.80
2019-05-02T23:03:24.168Z,58.80
2019-05-02T23:05:53.455Z,58.90
2019-05-02T23:08:23.097Z,59.00
2019-05-02T23:10:52.831Z,59.10
2019-05-02T23:13:24.644Z,59.10
2019-05-02T23:15:54.235Z,59.20
2019-05-02T23:18:24.346Z,59.30
2019-05-02T23:20:54.035Z,59.50
2019-05-02T23:23:24.211Z,59.40
2019-05-02T23:25:53.774Z,59.40
2019-05-02T23:28:27.486Z,59.60
2019-05-02T23:30:57.395Z,59.70
2019-05-02T23:33:28.890Z,59.90
2019-05-02T23:35:58.573Z,60.00
2019-05-02T23:38:28.224Z,59.90
2019-05-02T23:40:58.032Z,60.00
2019-05-02T23:43:27.826Z,60.00
2019-05-02T23:45:57.484Z,59.90
2019-05-02T23:48:27.232Z,59.90
2019-05-02T23:50:56.922Z,59.90
2019-05-02T23:53:26.567Z,59.90
2019-05-02T23:55:56.353Z,60.00
2019-05-02T23:58:26.025Z,59.90
